Time;durP1;ratioP1;P1;durP2;ratioP2;P2;SDS_P1;SDS_P2;PMS_P1;PMS_P2;Temp;Humidity;BMP_temperature;BMP_pressure;BME280_temperature;BME280_humidity;BME280_pressure;Samples;Min_cycle;Max_cycle;Signal;HPM_P1;HPM_P2
2022/12/03 00:00:49;;;;;;;24.00;12.75;;;4.60;99.90;;;;;;5060579;28;20032;-76
2022/12/03 00:03:14;;;;;;;24.65;12.35;;;4.60;99.90;;;;;;5077572;28;20036;-76
2022/12/03 00:05:40;;;;;;;23.13;12.63;;;4.60;99.90;;;;;;5077496;28;20044;-76
2022/12/03 00:08:05;;;;;;;26.83;13.82;;;4.80;99.90;;;;;;5075972;28;20040;-76
2022/12/03 00:10:31;;;;;;;23.23;12.73;;;4.70;99.90;;;;;;5077135;28;20124;-76
2022/12/03 00:12:56;;;;;;;21.52;12.15;;;4.70;99.90;;;;;;5075442;28;20040;-76
2022/12/03 00:15:22;;;;;;;21.98;11.18;;;4.80;99.90;;;;;;5075885;28;20091;-75
2022/12/03 00:17:47;;;;;;;20.88;11.82;;;4.70;99.90;;;;;;5075185;28;20489;-75
2022/12/03 00:20:22;;;;;;;20.15;12.30;;;4.90;99.90;;;;;;5074688;28;20033;-76
2022/12/03 00:22:48;;;;;;;17.42;10.48;;;4.80;99.90;;;;;;5076364;28;20045;-76
2022/12/03 00:25:13;;;;;;;23.48;11.50;;;4.90;99.90;;;;;;5076811;28;20032;-76
2022/12/03 00:27:39;;;;;;;21.17;11.07;;;4.90;99.90;;;;;;5075948;28;20078;-76
2022/12/03 00:30:05;;;;;;;20.40;11.55;;;5.00;99.90;;;;;;5077586;28;20051;-76
2022/12/03 00:32:31;;;;;;;18.50;11.18;;;4.90;99.90;;;;;;5076391;28;20056;-76
2022/12/03 00:34:56;;;;;;;21.83;12.38;;;5.00;99.90;;;;;;5077033;28;20044;-76
2022/12/03 00:37:22;;;;;;;21.15;11.82;;;4.90;99.90;;;;;;5077284;28;20090;-76
2022/12/03 00:39:47;;;;;;;19.92;11.48;;;4.80;99.90;;;;;;5075900;28;20032;-76
2022/12/03 00:42:13;;;;;;;19.52;11.05;;;4.80;99.90;;;;;;5076025;28;20037;-76
2022/12/03 00:44:38;;;;;;;23.98;12.63;;;4.80;99.90;;;;;;5074908;28;20040;-75
2022/12/03 00:47:04;;;;;;;17.42;10.75;;;4.90;99.90;;;;;;5076178;28;20051;-76
2022/12/03 00:49:30;;;;;;;22.98;12.77;;;4.80;99.90;;;;;;5074895;28;20458;-76
2022/12/03 00:51:55;;;;;;;21.38;12.30;;;4.70;99.90;;;;;;5073138;28;20561;-75
2022/12/03 00:54:21;;;;;;;20.42;11.77;;;4.80;99.90;;;;;;5075698;28;20049;-75
2022/12/03 00:56:46;;;;;;;24.33;12.38;;;4.70;99.90;;;;;;5075255;28;20079;-76
2022/12/03 00:59:12;;;;;;;19.63;11.93;;;4.80;99.90;;;;;;5076033;28;20497;-76
2022/12/03 01:01:37;;;;;;;22.50;12.80;;;4.60;99.90;;;;;;5075072;28;20490;-76
2022/12/03 01:04:03;;;;;;;22.55;13.40;;;4.70;99.90;;;;;;5075362;28;20188;-76
2022/12/03 01:06:29;;;;;;;22.65;13.88;;;4.60;99.90;;;;;;5074328;28;20067;-76
2022/12/03 01:08:54;;;;;;;23.85;13.73;;;4.60;99.90;;;;;;5074535;28;20370;-76
2022/12/03 01:11:38;;;;;;;21.83;12.20;;;4.70;99.90;;;;;;5057643;28;20043;-76
2022/12/03 01:14:05;;;;;;;26.02;13.68;;;4.80;99.90;;;;;;5056745;28;20048;-76
2022/12/03 01:16:32;;;;;;;27.45;13.65;;;4.60;99.90;;;;;;5074856;28;20036;-76
2022/12/03 01:18:57;;;;;;;22.33;12.77;;;4.70;99.90;;;;;;5075388;28;20032;-75
2022/12/03 01:21:23;;;;;;;23.70;13.35;;;4.60;99.90;;;;;;5074141;28;20043;-76
2022/12/03 01:23:48;;;;;;;23.83;13.00;;;4.70;99.90;;;;;;5072092;28;20032;-75
2022/12/03 01:26:14;;;;;;;21.45;13.68;;;4.70;99.90;;;;;;5074333;28;20571;-75
2022/12/03 01:28:40;;;;;;;24.70;13.90;;;4.70;99.90;;;;;;5072253;28;20044;-76
2022/12/03 01:33:51;;;;;;;23.25;12.68;;;4.60;99.90;;;;;;5073383;28;20088;-76
2022/12/03 01:36:17;;;;;;;21.33;12.82;;;4.70;99.90;;;;;;5071848;28;20490;-76
2022/12/03 01:38:42;;;;;;;24.20;13.43;;;4.70;99.90;;;;;;5069655;28;20060;-76
2022/12/03 01:41:08;;;;;;;25.88;14.13;;;4.60;99.90;;;;;;5062548;28;20037;-75
2022/12/03 01:43:34;;;;;;;22.40;12.45;;;4.60;99.90;;;;;;5055383;28;20089;-76
2022/12/03 01:46:00;;;;;;;21.63;12.63;;;4.60;99.90;;;;;;5071523;28;20086;-76
2022/12/03 01:48:27;;;;;;;21.17;12.63;;;4.60;99.90;;;;;;5052322;28;20407;-75
2022/12/03 01:50:52;;;;;;;26.73;13.30;;;4.50;99.90;;;;;;5052293;28;20453;-76
2022/12/03 01:53:18;;;;;;;20.55;12.75;;;4.50;99.90;;;;;;5053521;28;20069;-76
2022/12/03 01:55:45;;;;;;;23.50;12.18;;;4.60;99.90;;;;;;5052727;28;20064;-75
2022/12/03 01:58:13;;;;;;;26.13;13.55;;;4.50;99.90;;;;;;5052207;28;20048;-76
2022/12/03 02:00:39;;;;;;;20.98;12.35;;;4.60;99.90;;;;;;5052165;28;20132;-76
2022/12/03 02:03:24;;;;;;;24.20;12.95;;;4.50;99.90;;;;;;5051683;28;20580;-75
2022/12/03 02:05:50;;;;;;;25.17;13.68;;;4.50;99.90;;;;;;5052653;28;20681;-75
2022/12/03 02:08:34;;;;;;;26.90;13.30;;;4.50;99.90;;;;;;4998059;28;1073784;-74
2022/12/03 02:11:16;;;;;;;24.58;14.32;;;4.50;99.90;;;;;;5052367;28;20060;-75
2022/12/03 02:13:42;;;;;;;25.20;13.70;;;4.50;99.90;;;;;;5052380;28;20569;-75
2022/12/03 02:16:08;;;;;;;23.10;14.05;;;4.50;99.90;;;;;;5052451;28;20052;-74
2022/12/03 02:18:34;;;;;;;24.92;14.85;;;4.50;99.90;;;;;;5052848;28;20049;-74
2022/12/03 02:21:34;;;;;;;20.65;12.13;;;4.50;99.90;;;;;;5052890;28;20037;-74
2022/12/03 02:24:22;;;;;;;25.63;13.60;;;4.40;99.90;;;;;;5053139;28;20511;-74
2022/12/03 02:26:48;;;;;;;27.38;13.70;;;4.50;99.90;;;;;;5053448;28;20037;-75
2022/12/03 02:29:13;;;;;;;24.48;13.85;;;4.50;99.90;;;;;;5052096;28;20060;-74
2022/12/03 02:31:39;;;;;;;25.33;13.07;;;4.50;99.90;;;;;;5052730;28;20074;-74
2022/12/03 02:34:09;;;;;;;22.42;12.35;;;4.50;99.90;;;;;;5051871;28;20047;-74
2022/12/03 02:36:36;;;;;;;24.77;13.07;;;4.40;99.90;;;;;;5052626;28;20045;-74
2022/12/03 02:39:02;;;;;;;25.50;13.52;;;4.40;99.90;;;;;;5053101;28;20045;-74
2022/12/03 02:44:12;;;;;;;24.60;13.60;;;4.40;99.90;;;;;;5053199;28;20048;-75
2022/12/03 02:46:38;;;;;;;24.58;13.02;;;4.40;99.90;;;;;;5052310;28;20036;-74
2022/12/03 02:49:05;;;;;;;23.15;14.18;;;4.30;99.90;;;;;;5052673;28;20443;-74
2022/12/03 02:51:31;;;;;;;24.92;13.57;;;4.40;99.90;;;;;;5052069;28;20044;-74
2022/12/03 02:53:58;;;;;;;24.15;13.45;;;4.20;99.90;;;;;;5053340;28;20037;-75
2022/12/03 02:56:28;;;;;;;25.42;13.63;;;4.40;99.90;;;;;;5051768;28;20095;-74
2022/12/03 02:58:57;;;;;;;25.85;15.15;;;4.30;99.90;;;;;;5053011;28;20051;-74
2022/12/03 03:01:23;;;;;;;24.27;14.07;;;4.30;99.90;;;;;;5051516;28;20098;-75
2022/12/03 03:03:49;;;;;;;24.42;13.45;;;4.40;99.90;;;;;;5051526;28;20049;-74
2022/12/03 03:06:17;;;;;;;23.90;14.15;;;4.40;99.90;;;;;;5051888;28;20049;-75
2022/12/03 03:08:43;;;;;;;24.38;14.45;;;4.40;99.90;;;;;;5074248;22;20498;-70
2022/12/03 03:11:09;;;;;;;24.00;13.88;;;4.40;99.90;;;;;;5050456;28;20029;-71
2022/12/03 03:13:35;;;;;;;26.88;14.25;;;4.30;99.90;;;;;;5049990;28;20061;-72
2022/12/03 03:16:02;;;;;;;27.55;14.18;;;4.30;99.90;;;;;;5049152;28;20047;-71
2022/12/03 03:18:28;;;;;;;25.90;14.60;;;4.30;99.90;;;;;;5049930;28;20044;-72
2022/12/03 03:20:54;;;;;;;23.95;13.95;;;4.30;99.90;;;;;;5050540;28;20033;-71
2022/12/03 03:23:21;;;;;;;24.98;13.40;;;4.20;99.90;;;;;;5050303;28;20056;-71
2022/12/03 03:26:06;;;;;;;21.75;13.05;;;4.30;99.90;;;;;;5050241;28;20045;-71
2022/12/03 03:28:36;;;;;;;26.58;15.02;;;4.30;99.90;;;;;;5049975;28;20103;-72
2022/12/03 03:31:04;;;;;;;26.25;13.68;;;4.20;99.90;;;;;;5033709;28;20114;-71
2022/12/03 03:33:30;;;;;;;25.13;14.18;;;4.30;99.90;;;;;;5050124;28;20095;-71
2022/12/03 03:35:56;;;;;;;23.58;13.23;;;4.20;99.90;;;;;;5050179;28;20037;-72
2022/12/03 03:38:22;;;;;;;28.60;16.75;;;4.30;99.90;;;;;;5050591;28;20453;-71
2022/12/03 03:40:50;;;;;;;21.88;12.63;;;4.30;99.90;;;;;;5050772;28;20544;-71
2022/12/03 03:43:17;;;;;;;26.48;14.20;;;4.20;99.90;;;;;;5049842;28;20045;-72
2022/12/03 03:45:43;;;;;;;24.00;13.73;;;4.20;99.90;;;;;;5049987;28;20467;-71
2022/12/03 03:48:09;;;;;;;23.70;13.80;;;4.20;99.90;;;;;;5050058;28;20037;-71
2022/12/03 03:50:35;;;;;;;25.00;13.75;;;4.20;99.90;;;;;;5050177;28;20076;-71
2022/12/03 03:53:03;;;;;;;25.83;14.13;;;4.20;99.90;;;;;;5049765;28;20083;-71
2022/12/03 03:55:29;;;;;;;26.35;14.40;;;4.20;99.90;;;;;;5051392;28;20560;-71
2022/12/03 03:57:55;;;;;;;24.27;14.10;;;4.20;99.90;;;;;;5051084;28;20124;-71
2022/12/03 04:00:21;;;;;;;26.58;14.93;;;4.20;99.90;;;;;;5050156;28;20053;-72
2022/12/03 04:02:46;;;;;;;25.85;14.27;;;4.20;99.90;;;;;;5049529;28;20392;-72
2022/12/03 04:05:19;;;;;;;24.10;13.73;;;4.10;99.90;;;;;;5050083;28;20081;-71
2022/12/03 04:07:45;;;;;;;23.43;13.07;;;4.10;99.90;;;;;;5051075;28;20037;-71
2022/12/03 04:12:55;;;;;;;23.90;14.43;;;4.10;99.90;;;;;;5049479;28;20056;-71
2022/12/03 04:15:21;;;;;;;23.73;13.57;;;4.10;99.90;;;;;;5051251;28;20052;-71
2022/12/03 04:18:41;;;;;;;24.85;13.18;;;4.10;99.90;;;;;;5049651;28;20075;-72
2022/12/03 04:20:32;;;;;;;24.05;13.35;;;4.20;99.90;;;;;;5049800;28;20049;-72
2022/12/03 04:22:57;;;;;;;25.48;14.45;;;4.20;99.90;;;;;;5049378;28;20033;-71
2022/12/03 04:36:33;;;;;;;27.98;15.15;;;4.10;99.90;;;;;;5033106;28;20052;-71
2022/12/03 04:38:59;;;;;;;26.23;13.65;;;4.20;99.90;;;;;;5032961;28;20041;-71
2022/12/03 04:41:24;;;;;;;25.55;14.48;;;4.10;99.90;;;;;;5033073;28;20060;-72
2022/12/03 04:46:34;;;;;;;27.17;13.95;;;4.20;99.90;;;;;;5033006;28;20053;-71
2022/12/03 04:49:00;;;;;;;25.70;15.10;;;4.10;99.90;;;;;;5016348;28;20043;-71
2022/12/03 04:51:25;;;;;;;25.25;13.65;;;4.10;99.90;;;;;;5016429;28;20107;-72
2022/12/03 04:53:51;;;;;;;26.10;13.23;;;4.10;99.90;;;;;;5032779;28;20548;-72
2022/12/03 04:56:16;;;;;;;24.52;13.60;;;4.00;99.90;;;;;;5032653;28;20049;-73
2022/12/03 04:58:42;;;;;;;27.42;15.38;;;4.10;99.90;;;;;;5016515;28;20037;-72
2022/12/03 05:01:07;;;;;;;26.70;14.55;;;4.10;99.90;;;;;;5033002;28;20155;-71
2022/12/03 05:03:33;;;;;;;26.33;15.35;;;4.10;99.90;;;;;;5032330;28;20048;-72
2022/12/03 05:05:58;;;;;;;26.67;14.88;;;4.00;99.90;;;;;;5016205;28;20048;-72
2022/12/03 05:08:24;;;;;;;27.13;14.48;;;4.00;99.90;;;;;;5032479;28;20529;-72
2022/12/03 05:10:49;;;;;;;27.70;14.93;;;3.90;99.90;;;;;;5016213;28;20049;-71
2022/12/03 05:13:15;;;;;;;22.73;13.55;;;4.00;99.90;;;;;;5015938;28;20128;-72
2022/12/03 05:15:40;;;;;;;24.50;13.60;;;4.10;99.90;;;;;;5032716;28;20053;-72
2022/12/03 05:18:06;;;;;;;24.77;14.88;;;3.90;99.90;;;;;;5032230;28;20048;-72
2022/12/03 05:20:40;;;;;;;26.40;15.35;;;4.00;99.90;;;;;;5032547;28;20037;-72
2022/12/03 05:23:06;;;;;;;27.27;14.65;;;3.90;99.90;;;;;;5032226;28;20379;-71
2022/12/03 05:25:32;;;;;;;26.75;14.25;;;3.90;99.90;;;;;;5032404;28;20047;-71
2022/12/03 05:27:57;;;;;;;24.08;13.57;;;3.90;99.90;;;;;;5032097;28;20041;-72
2022/12/03 05:30:23;;;;;;;26.27;13.73;;;3.90;99.90;;;;;;5032195;28;20037;-71
2022/12/03 05:32:49;;;;;;;26.30;14.25;;;3.80;99.90;;;;;;5031851;28;20048;-72
2022/12/03 05:35:15;;;;;;;23.30;13.13;;;3.80;99.90;;;;;;5032989;28;20041;-72
2022/12/03 05:37:40;;;;;;;26.40;14.55;;;3.90;99.90;;;;;;5032535;28;20412;-71
2022/12/03 05:40:06;;;;;;;26.83;13.88;;;3.90;99.90;;;;;;5032003;28;20037;-71
2022/12/03 05:45:17;;;;;;;28.85;14.98;;;3.90;99.90;;;;;;5031904;28;20419;-71
2022/12/03 05:47:43;;;;;;;23.48;13.52;;;3.80;99.90;;;;;;5031782;28;20045;-72
2022/12/03 05:50:08;;;;;;;24.67;15.20;;;3.80;99.90;;;;;;5031634;28;20128;-72
2022/12/03 05:52:34;;;;;;;23.65;13.82;;;3.80;99.90;;;;;;5014740;28;20519;-71
2022/12/03 05:54:59;;;;;;;28.42;14.40;;;3.80;99.90;;;;;;5031838;28;20485;-72
2022/12/03 05:57:25;;;;;;;28.88;15.27;;;3.80;99.90;;;;;;5031541;28;20491;-72
2022/12/03 05:59:50;;;;;;;27.73;15.00;;;3.80;99.90;;;;;;5031503;28;20510;-71
2022/12/03 06:02:16;;;;;;;25.15;14.00;;;3.70;99.90;;;;;;5031678;28;20045;-71
2022/12/03 06:04:41;;;;;;;23.52;12.95;;;3.70;99.90;;;;;;5031463;28;20103;-71
2022/12/03 06:07:07;;;;;;;26.70;13.63;;;3.60;99.90;;;;;;5031725;28;20561;-72
2022/12/03 06:09:32;;;;;;;25.90;14.30;;;3.70;99.90;;;;;;5031598;28;20494;-72
2022/12/03 06:11:58;;;;;;;26.73;14.10;;;3.70;99.90;;;;;;5031477;28;20045;-72
2022/12/03 06:14:23;;;;;;;26.10;14.60;;;3.60;99.90;;;;;;5031297;28;20049;-72
2022/12/03 06:16:49;;;;;;;27.08;14.65;;;3.70;99.90;;;;;;5031217;28;20077;-72
2022/12/03 06:19:14;;;;;;;29.60;14.45;;;3.70;99.90;;;;;;5031536;28;20045;-72
2022/12/03 06:21:40;;;;;;;28.50;15.13;;;3.60;99.90;;;;;;5031255;28;20124;-72
2022/12/03 06:24:05;;;;;;;28.17;14.55;;;3.70;99.90;;;;;;5030799;28;20073;-72
2022/12/03 06:26:31;;;;;;;24.90;13.88;;;3.70;99.90;;;;;;5031075;28;20116;-72
2022/12/03 06:28:56;;;;;;;28.13;15.25;;;3.60;99.90;;;;;;5032390;28;20120;-72
2022/12/03 06:31:22;;;;;;;27.45;13.65;;;3.60;99.90;;;;;;5031001;28;20137;-72
2022/12/03 06:33:47;;;;;;;24.70;13.85;;;3.60;99.90;;;;;;5014302;28;20120;-71
2022/12/03 06:36:13;;;;;;;25.67;14.07;;;3.60;99.90;;;;;;5031135;28;20499;-71
2022/12/03 06:38:38;;;;;;;27.48;13.98;;;3.60;99.90;;;;;;5032091;28;20526;-72
2022/12/03 06:41:04;;;;;;;28.75;14.40;;;3.70;99.90;;;;;;5030772;28;20045;-72
2022/12/03 06:43:30;;;;;;;29.48;15.48;;;3.60;99.90;;;;;;5030525;28;20486;-71
2022/12/03 06:45:55;;;;;;;27.92;14.40;;;3.70;99.90;;;;;;5030695;28;20048;-72
2022/12/03 06:48:21;;;;;;;30.70;15.00;;;3.70;99.90;;;;;;5030951;28;20087;-72
2022/12/03 06:50:46;;;;;;;25.35;13.93;;;3.70;99.90;;;;;;5029682;28;20124;-71
2022/12/03 06:53:12;;;;;;;25.38;14.10;;;3.60;99.90;;;;;;5030579;28;20123;-72
2022/12/03 06:55:37;;;;;;;27.30;14.45;;;3.60;99.90;;;;;;5030547;28;20042;-71
2022/12/03 06:58:03;;;;;;;27.33;14.70;;;3.70;99.90;;;;;;5030492;28;20045;-72
2022/12/03 07:00:28;;;;;;;27.70;15.20;;;3.70;99.90;;;;;;5030541;28;20037;-71
2022/12/03 07:02:54;;;;;;;26.85;13.88;;;3.60;99.90;;;;;;5014092;28;20041;-72
2022/12/03 07:05:19;;;;;;;26.00;13.68;;;3.60;99.90;;;;;;5031699;28;20040;-71
2022/12/03 07:07:50;;;;;;;26.88;13.82;;;3.70;99.90;;;;;;5031659;28;20033;-71
2022/12/03 07:10:17;;;;;;;27.50;14.68;;;3.70;99.90;;;;;;5030412;28;20060;-72
2022/12/03 07:12:42;;;;;;;26.70;15.57;;;3.70;99.90;;;;;;5030018;28;20049;-71
2022/12/03 07:15:08;;;;;;;29.15;16.27;;;3.60;99.90;;;;;;5030664;28;20132;-72
2022/12/03 07:17:34;;;;;;;25.23;13.75;;;3.70;99.90;;;;;;5030423;28;20037;-71
2022/12/03 07:19:59;;;;;;;28.48;14.82;;;3.60;99.90;;;;;;5013827;28;20038;-71
2022/12/03 07:22:25;;;;;;;30.67;16.10;;;3.60;99.90;;;;;;5031112;28;20033;-71
2022/12/03 07:24:50;;;;;;;27.05;14.18;;;3.50;99.90;;;;;;5030272;28;20038;-71
2022/12/03 07:27:16;;;;;;;27.92;14.35;;;3.60;99.90;;;;;;5031594;28;20049;-72
2022/12/03 07:29:41;;;;;;;28.20;14.30;;;3.60;99.90;;;;;;5030144;28;20442;-71
2022/12/03 07:32:07;;;;;;;27.92;15.00;;;3.60;99.90;;;;;;5030414;28;20385;-71
2022/12/03 07:34:32;;;;;;;29.40;14.65;;;3.60;99.90;;;;;;5029850;28;20537;-71
2022/12/03 07:36:58;;;;;;;24.85;14.48;;;3.50;99.90;;;;;;5030129;28;20052;-71
2022/12/03 07:39:23;;;;;;;26.83;15.82;;;3.50;99.90;;;;;;5030401;28;20041;-71
2022/12/03 07:41:49;;;;;;;29.80;14.95;;;3.50;99.90;;;;;;5030135;28;20483;-71
2022/12/03 07:44:14;;;;;;;26.45;14.45;;;3.50;99.90;;;;;;5029796;28;20417;-72
2022/12/03 07:46:40;;;;;;;25.80;14.75;;;3.50;99.90;;;;;;5030200;28;20136;-72
2022/12/03 07:49:06;;;;;;;28.42;14.35;;;3.60;99.90;;;;;;5029923;28;20037;-71
2022/12/03 07:51:31;;;;;;;26.20;15.45;;;3.50;99.90;;;;;;5029960;28;20076;-71
2022/12/03 07:53:57;;;;;;;25.33;13.73;;;3.40;99.90;;;;;;5029731;28;20107;-72
2022/12/03 07:56:22;;;;;;;25.27;15.05;;;3.40;99.90;;;;;;5031240;28;20050;-71
2022/12/03 07:58:48;;;;;;;31.67;15.30;;;3.50;99.90;;;;;;5029926;28;20097;-72
2022/12/03 08:01:13;;;;;;;29.95;16.02;;;3.40;99.90;;;;;;5047972;28;20037;-72
2022/12/03 08:03:41;;;;;;;30.38;14.82;;;3.40;99.90;;;;;;5052982;28;20041;-72
2022/12/03 08:06:07;;;;;;;29.25;14.88;;;3.40;99.90;;;;;;5053480;28;20041;-73
2022/12/03 08:08:33;;;;;;;28.83;14.75;;;3.40;99.90;;;;;;5052844;28;20040;-72
2022/12/03 08:11:00;;;;;;;30.55;14.75;;;3.50;99.90;;;;;;5052928;28;20730;-72
2022/12/03 08:13:26;;;;;;;27.55;14.15;;;3.30;99.90;;;;;;5053126;28;20044;-72
2022/12/03 08:15:54;;;;;;;25.02;13.68;;;3.40;99.90;;;;;;5053429;28;20052;-72
2022/12/03 08:18:20;;;;;;;28.95;14.65;;;3.50;99.90;;;;;;5053186;28;20041;-72
2022/12/03 08:20:48;;;;;;;28.13;14.90;;;3.40;99.90;;;;;;5053529;28;20383;-72
2022/12/03 08:23:22;;;;;;;31.23;14.68;;;3.40;99.90;;;;;;5052936;28;20103;-71
2022/12/03 08:25:49;;;;;;;29.17;14.48;;;3.40;99.90;;;;;;5053427;28;20049;-72
2022/12/03 08:28:25;;;;;;;27.20;14.30;;;3.40;99.90;;;;;;5053391;28;20072;-72
2022/12/03 08:31:01;;;;;;;28.35;15.73;;;3.30;99.90;;;;;;5053417;28;20103;-73
2022/12/03 08:33:34;;;;;;;34.20;15.13;;;3.40;99.90;;;;;;5052837;28;20391;-73
2022/12/03 08:36:22;;;;;;;30.38;14.20;;;3.40;99.90;;;;;;5054316;28;20518;-72
2022/12/03 08:38:57;;;;;;;25.95;14.52;;;3.30;99.90;;;;;;5054202;28;20090;-72
2022/12/03 08:44:20;;;;;;;28.27;15.20;;;3.30;99.90;;;;;;5052681;28;20120;-72
2022/12/03 08:46:51;;;;;;;30.92;15.02;;;3.30;99.90;;;;;;5054189;28;20029;-72
2022/12/03 08:49:19;;;;;;;29.00;15.68;;;3.30;99.90;;;;;;5052759;28;20068;-72
2022/12/03 08:51:44;;;;;;;29.10;15.50;;;3.40;99.90;;;;;;5052676;28;20037;-72
2022/12/03 08:54:18;;;;;;;29.95;14.88;;;3.30;99.90;;;;;;5052480;28;20392;-71
2022/12/03 08:56:44;;;;;;;;;;;3.30;99.90;;;;;;5053145;28;20032;-72
2022/12/03 08:59:30;;;;;;;28.58;13.95;;;3.20;99.90;;;;;;5052597;28;19994;-72
2022/12/03 09:01:57;;;;;;;27.75;15.52;;;3.20;99.90;;;;;;5052751;28;20048;-72
2022/12/03 09:04:30;;;;;;;27.92;14.73;;;3.20;99.90;;;;;;5052242;28;20048;-72
2022/12/03 09:06:56;;;;;;;25.70;13.55;;;3.10;99.90;;;;;;5052524;28;20045;-72
2022/12/03 09:09:22;;;;;;;30.77;16.02;;;3.30;99.90;;;;;;5066823;22;20063;-74
2022/12/03 09:11:49;;;;;;;27.27;15.57;;;3.30;99.90;;;;;;5072451;28;20044;-73
2022/12/03 09:14:16;;;;;;;29.25;15.52;;;3.20;99.90;;;;;;5053924;28;20036;-75
2022/12/03 09:16:42;;;;;;;28.90;15.18;;;3.20;99.90;;;;;;5055212;28;20123;-75
2022/12/03 09:19:08;;;;;;;27.98;15.20;;;3.30;99.90;;;;;;5072073;28;20041;-75
2022/12/03 09:21:33;;;;;;;30.23;16.80;;;3.20;99.90;;;;;;5072285;28;20386;-74
2022/12/03 09:23:59;;;;;;;31.10;15.80;;;3.20;99.90;;;;;;5072386;28;20082;-74
2022/12/03 09:26:25;;;;;;;28.98;15.63;;;3.30;99.90;;;;;;5072538;28;20029;-73
2022/12/03 09:28:51;;;;;;;33.75;16.15;;;3.20;99.90;;;;;;5071855;28;20406;-74
2022/12/03 09:31:17;;;;;;;28.10;14.38;;;3.30;99.90;;;;;;5072097;28;20047;-74
2022/12/03 09:33:42;;;;;;;33.75;17.10;;;3.20;99.90;;;;;;5072036;28;20624;-74
2022/12/03 09:36:08;;;;;;;31.45;17.08;;;3.20;99.90;;;;;;5071614;28;20040;-74
2022/12/03 09:38:34;;;;;;;35.47;17.05;;;3.20;99.90;;;;;;5071757;28;20143;-74
2022/12/03 09:40:59;;;;;;;29.83;15.23;;;3.20;99.90;;;;;;5072008;28;20406;-74
2022/12/03 09:43:31;;;;;;;30.00;16.52;;;3.00;99.90;;;;;;5071461;28;20036;-74
2022/12/03 09:45:57;;;;;;;35.78;17.90;;;3.00;99.90;;;;;;5071695;28;20060;-75
2022/12/03 09:48:22;;;;;;;34.15;16.98;;;3.00;99.90;;;;;;5071594;28;20122;-74
2022/12/03 09:50:48;;;;;;;33.92;18.50;;;3.00;99.90;;;;;;5071567;28;20045;-73
2022/12/03 09:53:17;;;;;;;30.10;16.33;;;3.10;99.90;;;;;;5071353;28;20055;-75
2022/12/03 09:55:44;;;;;;;35.55;17.85;;;3.10;99.90;;;;;;5071627;28;20109;-75
2022/12/03 09:58:12;;;;;;;32.30;16.50;;;3.10;99.90;;;;;;5071245;28;20131;-75
2022/12/03 10:00:40;;;;;;;36.90;18.33;;;3.00;99.90;;;;;;5071211;28;20147;-74
2022/12/03 10:03:06;;;;;;;33.75;18.00;;;3.10;99.90;;;;;;5071084;28;20086;-74
2022/12/03 10:05:33;;;;;;;32.10;16.15;;;3.00;99.90;;;;;;5071033;28;20086;-74
2022/12/03 10:08:20;;;;;;;37.38;17.23;;;3.00;99.90;;;;;;5054626;28;20040;-74
2022/12/03 10:10:49;;;;;;;32.72;17.02;;;3.00;99.90;;;;;;5054420;28;20512;-74
2022/12/03 10:13:28;;;;;;;30.20;16.25;;;3.00;99.90;;;;;;5053792;28;20048;-74
2022/12/03 10:15:57;;;;;;;33.53;16.58;;;3.00;99.90;;;;;;5070970;28;20048;-75
2022/12/03 10:18:28;;;;;;;32.75;17.65;;;3.00;99.90;;;;;;5070707;28;20083;-74
2022/12/03 10:20:54;;;;;;;32.47;15.73;;;2.90;99.90;;;;;;5071142;28;20040;-73
2022/12/03 10:23:22;;;;;;;32.47;16.75;;;2.90;99.90;;;;;;5071137;28;20557;-74
2022/12/03 10:25:56;;;;;;;33.17;15.63;;;3.10;99.90;;;;;;5071522;28;20152;-75
2022/12/03 10:28:32;;;;;;;33.33;15.18;;;3.10;99.90;;;;;;5072143;28;20044;-75
2022/12/03 10:31:00;;;;;;;32.42;16.35;;;3.00;99.90;;;;;;5064252;28;20518;-74
2022/12/03 10:33:33;;;;;;;32.83;16.83;;;3.00;99.90;;;;;;5069204;28;20043;-74
2022/12/03 10:36:24;;;;;;;33.47;18.05;;;3.10;99.90;;;;;;5055092;28;20107;-74
2022/12/03 10:39:13;;;;;;;34.35;16.75;;;3.00;99.90;;;;;;5054518;28;20097;-74
2022/12/03 10:41:40;;;;;;;38.70;18.80;;;3.00;99.90;;;;;;5070801;28;20105;-74
2022/12/03 10:44:15;;;;;;;32.08;15.82;;;3.00;99.90;;;;;;5070168;28;20075;-74
2022/12/03 10:46:41;;;;;;;35.53;17.88;;;3.00;99.90;;;;;;5070764;28;20040;-74
2022/12/03 10:49:17;;;;;;;35.25;16.92;;;3.00;99.90;;;;;;5064100;28;20049;-73
2022/12/03 10:51:45;;;;;;;37.00;17.10;;;3.00;99.90;;;;;;5061081;28;20036;-74
2022/12/03 10:54:19;;;;;;;34.72;17.05;;;3.00;99.90;;;;;;5063286;28;20082;-74
2022/12/03 10:56:46;;;;;;;37.85;17.58;;;3.00;99.90;;;;;;5070832;28;20394;-74
2022/12/03 10:59:16;;;;;;;37.28;18.35;;;3.00;99.90;;;;;;5071853;28;20044;-75
2022/12/03 11:01:41;;;;;;;36.30;15.88;;;3.00;99.90;;;;;;5073056;28;20096;-74
2022/12/03 11:04:21;;;;;;;31.25;16.95;;;3.00;99.90;;;;;;5070258;28;20147;-74
2022/12/03 11:06:47;;;;;;;35.95;18.27;;;2.90;99.90;;;;;;5053883;28;20347;-75
2022/12/03 11:09:22;;;;;;;32.67;17.10;;;3.00;99.90;;;;;;5070383;28;20490;-75
2022/12/03 11:11:49;;;;;;;35.10;18.83;;;3.00;99.90;;;;;;5070903;28;20432;-75
2022/12/03 11:14:49;;;;;;;33.75;16.23;;;3.00;99.90;;;;;;5070350;28;20494;-75
2022/12/03 11:17:44;;;;;;;35.05;17.40;;;3.00;99.90;;;;;;5053603;28;20499;-75
2022/12/03 11:20:21;;;;;;;33.05;17.63;;;3.10;99.90;;;;;;5053334;28;20033;-75
2022/12/03 11:22:48;;;;;;;33.28;16.75;;;3.10;99.90;;;;;;5070197;28;20051;-75
2022/12/03 11:25:26;;;;;;;32.75;16.55;;;3.10;99.90;;;;;;5070313;28;20052;-74
2022/12/03 11:28:10;;;;;;;34.50;16.75;;;3.20;99.90;;;;;;5053470;28;20123;-75
2022/12/03 11:30:50;;;;;;;36.78;18.20;;;3.10;99.90;;;;;;5070425;28;20068;-74
2022/12/03 11:33:29;;;;;;;31.08;15.98;;;3.10;99.90;;;;;;5070857;28;20087;-75
2022/12/03 11:36:04;;;;;;;32.80;16.20;;;3.20;99.90;;;;;;5070661;28;20529;-75
2022/12/03 11:38:36;;;;;;;34.35;17.95;;;3.10;99.90;;;;;;5074297;28;20047;-74
2022/12/03 11:41:19;;;;;;;34.78;16.63;;;3.10;99.90;;;;;;5057563;28;20090;-74
2022/12/03 11:43:51;;;;;;;31.55;16.55;;;3.20;99.90;;;;;;5065929;28;20051;-75
2022/12/03 11:46:44;;;;;;;35.72;17.00;;;3.20;99.90;;;;;;5078026;28;20100;-74
2022/12/03 11:49:27;;;;;;;35.95;18.10;;;3.20;99.90;;;;;;5068731;28;20047;-74
2022/12/03 11:51:53;;;;;;;34.42;16.58;;;3.20;99.90;;;;;;5094305;28;20435;-75
2022/12/03 11:54:21;;;;;;;30.08;15.48;;;3.20;99.90;;;;;;5093996;28;20040;-75
2022/12/03 11:56:48;;;;;;;37.42;16.90;;;3.10;99.90;;;;;;5072381;28;20498;-75
2022/12/03 11:59:14;;;;;;;33.65;17.25;;;3.20;99.90;;;;;;5053780;28;20037;-75
2022/12/03 12:01:41;;;;;;;31.42;15.93;;;3.20;99.90;;;;;;5037637;28;20513;-74
2022/12/03 12:04:29;;;;;;;32.67;17.48;;;3.20;99.90;;;;;;5053975;28;20049;-74
2022/12/03 12:06:54;;;;;;;44.47;17.63;;;3.20;99.90;;;;;;5054721;28;20517;-75
2022/12/03 12:09:52;;;;;;;34.05;17.05;;;3.30;99.90;;;;;;5053861;28;20029;-70
2022/12/03 12:12:29;;;;;;;37.08;17.52;;;3.30;99.90;;;;;;5054238;28;20037;-70
2022/12/03 12:14:56;;;;;;;33.58;17.73;;;3.30;99.90;;;;;;5054871;28;20037;-70
2022/12/03 12:17:35;;;;;;;29.83;16.83;;;3.30;99.90;;;;;;5052564;28;20061;-70
2022/12/03 12:20:23;;;;;;;34.88;16.67;;;3.30;99.90;;;;;;5054275;28;20033;-71
2022/12/03 12:22:49;;;;;;;29.02;17.20;;;3.30;99.90;;;;;;5052222;28;20055;-71
2022/12/03 12:25:36;;;;;;;33.60;17.50;;;3.30;99.90;;;;;;5054527;28;20033;-70
2022/12/03 12:28:02;;;;;;;33.28;17.20;;;3.20;99.90;;;;;;5053251;28;20045;-70
2022/12/03 12:30:27;;;;;;;36.17;19.02;;;3.20;99.90;;;;;;5054298;28;20128;-70
2022/12/03 12:33:18;;;;;;;33.15;16.55;;;3.20;99.90;;;;;;5054346;28;20088;-70
2022/12/03 12:35:43;;;;;;;34.55;16.60;;;3.20;99.90;;;;;;5053359;28;20037;-70
2022/12/03 12:38:19;;;;;;;33.70;18.85;;;3.20;99.90;;;;;;5052994;28;20092;-70
2022/12/03 12:40:48;;;;;;;39.05;17.13;;;3.20;99.90;;;;;;5054247;28;20043;-72
2022/12/03 12:43:29;;;;;;;32.38;17.13;;;3.20;99.90;;;;;;5052579;28;20071;-70
2022/12/03 12:46:07;;;;;;;33.58;16.08;;;3.20;99.90;;;;;;5054390;28;20052;-71
2022/12/03 12:48:36;;;;;;;29.13;15.60;;;3.20;99.90;;;;;;5054150;28;20037;-71
2022/12/03 12:51:17;;;;;;;33.55;16.55;;;3.20;99.90;;;;;;5052888;28;20037;-70
2022/12/03 12:53:43;;;;;;;33.90;16.85;;;3.10;99.90;;;;;;5052468;28;20060;-70
2022/12/03 12:56:30;;;;;;;36.15;18.13;;;3.10;99.90;;;;;;5052780;28;20044;-70
2022/12/03 12:59:00;;;;;;;29.67;15.88;;;3.00;99.90;;;;;;5052584;28;20048;-70
2022/12/03 13:01:28;;;;;;;31.35;16.42;;;3.00;99.90;;;;;;5053798;28;20086;-70
2022/12/03 13:03:54;;;;;;;33.25;16.88;;;3.10;99.90;;;;;;5052249;28;20045;-70
2022/12/03 13:06:25;;;;;;;37.05;17.95;;;3.10;99.90;;;;;;5052466;28;20033;-70
2022/12/03 13:08:52;;;;;;;35.58;18.13;;;3.10;99.90;;;;;;5053587;28;20040;-69
2022/12/03 13:11:24;;;;;;;32.30;16.80;;;3.10;99.90;;;;;;5035710;28;20041;-69
2022/12/03 13:13:50;;;;;;;30.38;16.33;;;3.10;99.90;;;;;;5053292;28;20041;-69